Time;durP1;ratioP1;P1;durP2;ratioP2;P2;SDS_P1;SDS_P2;PMS_P1;PMS_P2;Temp;Humidity;BMP_temperature;BMP_pressure;BME280_temperature;BME280_humidity;BME280_pressure;Samples;Min_cycle;Max_cycle;Signal;HPM_P1;HPM_P2
2023/12/22 00:01:31;;;;;;;;;;;;;;;0.82;100.00;95220.00;110700;1237;71406;-76
2023/12/22 00:04:01;;;;;;;;;;;;;;;0.80;100.00;95217.24;110527;1241;69171;-74
2023/12/22 00:06:31;;;;;;;;;;;;;;;0.79;100.00;95214.90;110710;1239;68168;-76
2023/12/22 00:09:01;;;;;;;;;;;;;;;0.80;100.00;95213.13;110577;1239;60598;-76
2023/12/22 00:11:31;;;;;;;;;;;;;;;0.80;100.00;95211.11;110700;1239;60487;-76
2023/12/22 00:14:00;;;;;;;;;;;;;;;0.79;100.00;95203.93;110569;1237;72223;-75
2023/12/22 00:16:29;;;;;;;;;;;;;;;0.80;100.00;95207.83;110578;1239;68541;-75
2023/12/22 00:18:59;;;;;;;;;;;;;;;0.80;100.00;95212.13;110566;1238;69123;-75
2023/12/22 00:21:29;;;;;;;;;;;;;;;0.82;100.00;95211.64;110625;1240;60534;-75
2023/12/22 00:23:59;;;;;;;;;;;;;;;0.83;100.00;95205.86;110688;1239;60404;-76
2023/12/22 00:26:28;;;;;;;;;;;;;;;0.84;100.00;95201.52;110678;1245;71730;-75
2023/12/22 00:28:57;;;;;;;;;;;;;;;0.85;100.00;95195.95;110722;1238;68375;-76
2023/12/22 00:31:28;;;;;;;;;;;;;;;0.84;100.00;95191.79;110690;1239;68696;-75
2023/12/22 00:34:00;;;;;;;;;;;;;;;0.82;100.00;95194.09;110563;1241;60553;-76
2023/12/22 00:36:31;;;;;;;;;;;;;;;0.84;100.00;95194.02;110519;1242;60476;-75
2023/12/22 00:39:01;;;;;;;;;;;;;;;0.86;100.00;95189.41;110648;1240;71567;-75
2023/12/22 00:41:33;;;;;;;;;;;;;;;0.88;100.00;95185.11;110644;1239;68302;-75
2023/12/22 00:44:03;;;;;;;;;;;;;;;0.91;100.00;95181.02;110549;1238;69493;-75
2023/12/22 00:46:32;;;;;;;;;;;;;;;0.92;100.00;95178.67;110698;1241;60474;-75
2023/12/22 00:49:02;;;;;;;;;;;;;;;0.93;100.00;95170.87;110642;1239;60923;-75
2023/12/22 00:51:33;;;;;;;;;;;;;;;0.93;100.00;95169.86;110781;1238;71303;-75
2023/12/22 00:54:02;;;;;;;;;;;;;;;0.94;100.00;95161.91;110688;1239;68332;-75
2023/12/22 00:56:31;;;;;;;;;;;;;;;0.95;100.00;95164.93;110600;1239;69258;-75
2023/12/22 00:59:01;;;;;;;;;;;;;;;0.97;100.00;95158.80;110676;1239;60486;-76
2023/12/22 01:01:39;;;;;;;;;;;;;;;0.97;100.00;95160.48;110635;1242;60481;-75
2023/12/22 01:04:09;;;;;;;;;;;;;;;0.99;100.00;95149.66;110734;1239;71586;-75
2023/12/22 01:06:39;;;;;;;;;;;;;;;1.01;100.00;95148.73;110799;1239;68542;-75
2023/12/22 01:09:10;;;;;;;;;;;;;;;1.03;100.00;95140.86;110747;1240;68316;-76
2023/12/22 01:11:40;;;;;;;;;;;;;;;1.04;100.00;95140.98;110810;1239;60469;-76
2023/12/22 01:14:10;;;;;;;;;;;;;;;1.04;100.00;95139.75;110628;1239;60940;-76
2023/12/22 01:16:40;;;;;;;;;;;;;;;1.02;100.00;95141.94;110792;1240;72257;-76
2023/12/22 01:19:09;;;;;;;;;;;;;;;1.04;100.00;95128.95;110610;1240;69226;-76
2023/12/22 01:21:39;;;;;;;;;;;;;;;1.05;100.00;95128.36;110598;1239;69124;-76
2023/12/22 01:24:08;;;;;;;;;;;;;;;1.07;100.00;95122.41;110722;1239;60568;-76
2023/12/22 01:26:38;;;;;;;;;;;;;;;1.10;100.00;95106.08;110795;1240;60480;-76
2023/12/22 01:29:08;;;;;;;;;;;;;;;1.08;100.00;95106.20;110769;1237;72803;-76
2023/12/22 01:31:39;;;;;;;;;;;;;;;1.10;100.00;95106.77;110778;1240;68601;-76
2023/12/22 01:34:10;;;;;;;;;;;;;;;1.11;100.00;95106.14;110603;1239;68399;-76
2023/12/22 01:36:40;;;;;;;;;;;;;;;1.13;100.00;95112.36;110710;1239;60544;-76
2023/12/22 01:39:11;;;;;;;;;;;;;;;1.14;100.00;95108.54;110612;1239;60477;-76
2023/12/22 01:41:43;;;;;;;;;;;;;;;1.14;100.00;95096.17;110607;1246;72254;-76
2023/12/22 01:44:14;;;;;;;;;;;;;;;1.15;100.00;95091.77;110654;1242;67412;-76
2023/12/22 01:46:46;;;;;;;;;;;;;;;1.16;100.00;95085.05;110708;1241;68920;-76
2023/12/22 01:49:17;;;;;;;;;;;;;;;1.16;100.00;95078.36;110608;1240;60556;-76
2023/12/22 01:51:49;;;;;;;;;;;;;;;1.18;100.00;95071.64;110654;1239;60550;-76
2023/12/22 01:54:21;;;;;;;;;;;;;;;1.20;100.00;95056.93;109750;1239;1103197;-76
2023/12/22 01:56:54;;;;;;;;;;;;;;;1.20;100.00;95053.36;110574;1240;68184;-76
2023/12/22 01:59:24;;;;;;;;;;;;;;;1.17;100.00;95049.25;110622;1239;68583;-76
2023/12/22 02:01:57;;;;;;;;;;;;;;;1.16;100.00;95042.70;110659;1239;60544;-76
2023/12/22 02:04:28;;;;;;;;;;;;;;;1.14;100.00;95036.48;110640;1239;60523;-76
2023/12/22 02:07:01;;;;;;;;;;;;;;;1.12;100.00;95030.98;110606;1240;71072;-76
2023/12/22 02:09:32;;;;;;;;;;;;;;;1.13;100.00;95020.60;110751;1240;68358;-76
2023/12/22 02:12:04;;;;;;;;;;;;;;;1.11;100.00;95017.79;110759;1239;68365;-76
2023/12/22 02:14:34;;;;;;;;;;;;;;;1.07;100.00;95020.48;110714;1239;60505;-76
2023/12/22 02:17:09;;;;;;;;;;;;;;;1.06;100.00;95018.52;110659;1239;60547;-76
2023/12/22 02:19:45;;;;;;;;;;;;;;;1.06;100.00;95008.27;110603;1239;72335;-76
2023/12/22 02:22:18;;;;;;;;;;;;;;;1.06;100.00;95001.90;110646;1239;69133;-76
2023/12/22 02:24:51;;;;;;;;;;;;;;;1.07;100.00;94992.05;110606;1240;68374;-76
2023/12/22 02:27:52;;;;;;;;;;;;;;;1.08;100.00;94997.08;110590;1246;60485;-76
2023/12/22 02:30:31;;;;;;;;;;;;;;;1.11;100.00;94995.87;110485;1241;60460;-76
2023/12/22 02:33:04;;;;;;;;;;;;;;;1.12;100.00;94987.73;110571;1237;72220;-76
2023/12/22 02:35:37;;;;;;;;;;;;;;;1.15;100.00;94976.18;110650;1239;69237;-76
2023/12/22 02:38:07;;;;;;;;;;;;;;;1.17;100.00;94964.54;110614;1239;69376;-76
2023/12/22 02:40:40;;;;;;;;;;;;;;;1.18;100.00;94952.94;110724;1238;60528;-76
2023/12/22 02:43:09;;;;;;;;;;;;;;;1.17;100.00;94952.14;110681;1237;60460;-76
2023/12/22 02:45:38;;;;;;;;;;;;;;;1.16;100.00;94953.11;110610;1237;72238;-76
2023/12/22 02:48:08;;;;;;;;;;;;;;;1.14;100.00;94953.11;110705;1238;68720;-76
2023/12/22 02:50:38;;;;;;;;;;;;;;;1.13;100.00;94946.00;110682;1242;69174;-76
2023/12/22 02:53:09;;;;;;;;;;;;;;;1.14;100.00;94938.52;110675;1239;60781;-77
2023/12/22 02:55:39;;;;;;;;;;;;;;;1.14;100.00;94925.08;110695;1245;60552;-76
2023/12/22 02:58:12;;;;;;;;;;;;;;;1.15;100.00;94924.54;110809;1244;71444;-76
2023/12/22 03:00:43;;;;;;;;;;;;;;;1.14;100.00;94934.86;110633;1238;68516;-75
2023/12/22 03:03:13;;;;;;;;;;;;;;;1.12;100.00;94947.38;110547;1243;68957;-76
2023/12/22 03:05:43;;;;;;;;;;;;;;;1.14;100.00;94951.35;110574;1240;60528;-75
2023/12/22 03:08:13;;;;;;;;;;;;;;;1.15;100.00;94953.33;110592;1246;60536;-75
2023/12/22 03:10:42;;;;;;;;;;;;;;;1.18;100.00;94942.69;110679;1239;71388;-76
2023/12/22 03:13:11;;;;;;;;;;;;;;;1.20;100.00;94938.03;110605;1240;68553;-76
2023/12/22 03:15:41;;;;;;;;;;;;;;;1.24;100.00;94933.64;110571;1241;69323;-76
2023/12/22 03:18:10;;;;;;;;;;;;;;;1.27;100.00;94921.06;110592;1239;60553;-75
2023/12/22 03:20:40;;;;;;;;;;;;;;;1.32;100.00;94919.30;110797;1239;60560;-75
2023/12/22 03:23:10;;;;;;;;;;;;;;;1.35;100.00;94915.10;110635;1239;71690;-75
2023/12/22 03:25:39;;;;;;;;;;;;;;;1.38;100.00;94906.79;110614;1239;68511;-75
2023/12/22 03:28:10;;;;;;;;;;;;;;;1.40;100.00;94902.02;110730;1239;69280;-75
2023/12/22 03:30:40;;;;;;;;;;;;;;;1.44;100.00;94895.54;110765;1242;60480;-75
2023/12/22 03:33:11;;;;;;;;;;;;;;;1.47;100.00;94894.95;110619;1239;60478;-75
2023/12/22 03:35:43;;;;;;;;;;;;;;;1.50;100.00;94898.17;110748;1243;72743;-75
2023/12/22 03:38:12;;;;;;;;;;;;;;;1.54;100.00;94894.48;110614;1238;68484;-75
2023/12/22 03:40:43;;;;;;;;;;;;;;;1.57;100.00;94895.44;110615;1243;69205;-75
2023/12/22 03:43:13;;;;;;;;;;;;;;;1.60;100.00;94893.67;110671;1237;60528;-75
2023/12/22 03:45:45;;;;;;;;;;;;;;;1.63;100.00;94892.58;110711;1237;60531;-75
2023/12/22 03:48:16;;;;;;;;;;;;;;;1.65;100.00;94889.45;110778;1240;71489;-74
2023/12/22 03:50:46;;;;;;;;;;;;;;;1.67;100.00;94885.90;110782;1245;69317;-75
2023/12/22 03:53:17;;;;;;;;;;;;;;;1.68;100.00;94884.40;110629;1239;69238;-74
2023/12/22 03:55:46;;;;;;;;;;;;;;;1.69;100.00;94870.77;110604;1239;60537;-74
2023/12/22 03:58:18;;;;;;;;;;;;;;;1.72;100.00;94867.28;110693;1239;60466;-75
2023/12/22 04:00:48;;;;;;;;;;;;;;;1.75;100.00;94863.83;110629;1245;72163;-75
2023/12/22 04:03:19;;;;;;;;;;;;;;;1.78;100.00;94847.05;110616;1239;69109;-74
2023/12/22 04:05:49;;;;;;;;;;;;;;;1.82;100.00;94846.27;110683;1239;68600;-75
2023/12/22 04:08:20;;;;;;;;;;;;;;;1.86;100.00;94837.39;110803;1239;60425;-75
2023/12/22 04:10:50;;;;;;;;;;;;;;;1.89;100.00;94836.23;110751;1238;60528;-75
2023/12/22 04:13:21;;;;;;;;;;;;;;;1.92;100.00;94831.35;110698;1239;72501;-75
2023/12/22 04:15:52;;;;;;;;;;;;;;;1.94;100.00;94834.81;110642;1237;69217;-75
2023/12/22 04:18:21;;;;;;;;;;;;;;;1.97;100.00;94832.51;110595;1246;69295;-76
2023/12/22 04:20:53;;;;;;;;;;;;;;;2.01;100.00;94832.70;110745;1239;60547;-75
2023/12/22 04:23:23;;;;;;;;;;;;;;;2.04;100.00;94837.80;110631;1239;60485;-75
2023/12/22 04:25:53;;;;;;;;;;;;;;;2.05;100.00;94846.66;110634;1239;71637;-75
2023/12/22 04:28:23;;;;;;;;;;;;;;;2.08;100.00;94844.92;110436;1238;69098;-75
2023/12/22 04:30:53;;;;;;;;;;;;;;;2.12;100.00;94838.20;110533;1239;69275;-75
2023/12/22 04:33:24;;;;;;;;;;;;;;;2.16;100.00;94838.77;110642;1240;60431;-75
2023/12/22 04:35:54;;;;;;;;;;;;;;;2.17;100.00;94837.45;110460;1242;60534;-75
2023/12/22 04:38:24;;;;;;;;;;;;;;;2.18;100.00;94837.23;110588;1239;71445;-76
2023/12/22 04:40:53;;;;;;;;;;;;;;;2.16;100.00;94837.69;110662;1239;69169;-75
2023/12/22 04:43:24;;;;;;;;;;;;;;;2.14;100.00;94830.82;110634;1246;69420;-75
2023/12/22 04:45:55;;;;;;;;;;;;;;;2.14;100.00;94826.17;110719;1242;60498;-76
2023/12/22 04:48:26;;;;;;;;;;;;;;;2.13;100.00;94819.94;110777;1239;60434;-76
2023/12/22 04:50:55;;;;;;;;;;;;;;;2.12;100.00;94820.52;110714;1238;71160;-77
2023/12/22 04:53:26;;;;;;;;;;;;;;;2.16;100.00;94827.27;110637;1239;69116;-75
2023/12/22 04:55:55;;;;;;;;;;;;;;;2.22;100.00;94827.13;110713;1246;69423;-77
2023/12/22 04:58:25;;;;;;;;;;;;;;;2.26;100.00;94828.08;110736;1239;60524;-76
2023/12/22 05:00:54;;;;;;;;;;;;;;;2.28;100.00;94821.79;110341;1243;60527;-76
2023/12/22 05:03:24;;;;;;;;;;;;;;;2.27;100.00;94809.67;110602;1241;72039;-77
2023/12/22 05:05:53;;;;;;;;;;;;;;;2.26;100.00;94805.27;110696;1239;69255;-76
2023/12/22 05:08:23;;;;;;;;;;;;;;;2.25;100.00;94812.71;110574;1239;69285;-78
2023/12/22 05:10:52;;;;;;;;;;;;;;;2.29;100.00;94822.76;110566;1239;60548;-74
2023/12/22 05:13:21;;;;;;;;;;;;;;;2.29;100.00;94824.25;110640;1239;60430;-75
2023/12/22 05:15:52;;;;;;;;;;;;;;;2.32;100.00;94827.29;110677;1238;72038;-77
2023/12/22 05:18:24;;;;;;;;;;;;;;;2.34;100.00;94832.80;110655;1239;68287;-75
2023/12/22 05:20:54;;;;;;;;;;;;;;;2.36;100.00;94835.58;110679;1238;69304;-67
2023/12/22 05:23:23;;;;;;;;;;;;;;;2.38;100.00;94835.77;110493;1239;60546;-65
2023/12/22 05:25:53;;;;;;;;;;;;;;;2.40;100.00;94824.23;110531;1239;60473;-65
2023/12/22 05:28:23;;;;;;;;;;;;;;;2.45;100.00;94818.19;110590;1239;72215;-66
2023/12/22 05:30:52;;;;;;;;;;;;;;;2.47;100.00;94821.56;110588;1239;69270;-66
2023/12/22 05:33:21;;;;;;;;;;;;;;;2.49;100.00;94819.52;110472;1239;69470;-65
2023/12/22 05:35:52;;;;;;;;;;;;;;;2.50;100.00;94817.40;110508;1239;60544;-65
2023/12/22 05:38:21;;;;;;;;;;;;;;;2.50;100.00;94805.86;110611;1240;60560;-66
2023/12/22 05:40:51;;;;;;;;;;;;;;;2.49;100.00;94801.79;110582;1240;71533;-66
2023/12/22 05:43:21;;;;;;;;;;;;;;;2.48;100.00;94796.73;110573;1243;69083;-66
2023/12/22 05:45:52;;;;;;;;;;;;;;;2.46;100.00;94796.98;110526;1246;69993;-66
2023/12/22 05:48:21;;;;;;;;;;;;;;;2.44;100.00;94787.77;110551;1239;60488;-67
2023/12/22 05:50:51;;;;;;;;;;;;;;;2.44;100.00;94780.45;110563;1239;60438;-67
2023/12/22 05:53:21;;;;;;;;;;;;;;;2.43;100.00;94780.49;110659;1246;72183;-66
2023/12/22 05:55:50;;;;;;;;;;;;;;;2.42;100.00;94777.81;110577;1246;69821;-66
2023/12/22 05:58:20;;;;;;;;;;;;;;;2.41;100.00;94789.81;110502;1239;68381;-65
2023/12/22 06:00:49;;;;;;;;;;;;;;;2.40;100.00;94783.67;110551;1242;60479;-65
2023/12/22 06:03:18;;;;;;;;;;;;;;;2.38;100.00;94778.89;110654;1239;60427;-65
2023/12/22 06:05:48;;;;;;;;;;;;;;;2.35;100.00;94786.63;110662;1239;72771;-65
2023/12/22 06:08:19;;;;;;;;;;;;;;;2.33;100.00;94779.65;110556;1239;68287;-65
2023/12/22 06:10:49;;;;;;;;;;;;;;;2.28;100.00;94789.14;110643;1238;68533;-65
2023/12/22 06:13:19;;;;;;;;;;;;;;;2.26;100.00;94801.13;110565;1239;60437;-65
2023/12/22 06:15:49;;;;;;;;;;;;;;;2.24;100.00;94795.13;110515;1239;60478;-65
2023/12/22 06:18:18;;;;;;;;;;;;;;;2.24;100.00;94773.45;110500;1239;71384;-65
2023/12/22 06:20:48;;;;;;;;;;;;;;;2.30;100.00;94779.38;110556;1240;68461;-65
2023/12/22 06:23:18;;;;;;;;;;;;;;;2.38;100.00;94797.59;110585;1237;69320;-65
2023/12/22 06:25:48;;;;;;;;;;;;;;;2.44;100.00;94790.40;110562;1239;60485;-65
2023/12/22 06:28:17;;;;;;;;;;;;;;;2.46;100.00;94788.98;110492;1241;60489;-65
2023/12/22 06:30:47;;;;;;;;;;;;;;;2.50;100.00;94805.75;110560;1239;72211;-65
2023/12/22 06:33:16;;;;;;;;;;;;;;;2.52;100.00;94820.32;110598;1239;69092;-65
2023/12/22 06:35:45;;;;;;;;;;;;;;;2.52;100.00;94818.23;110580;1239;69084;-64
2023/12/22 06:38:14;;;;;;;;;;;;;;;2.54;100.00;94829.27;110547;1240;60545;-64
2023/12/22 06:40:46;;;;;;;;;;;;;;;2.56;100.00;94858.87;110671;1238;60571;-64
2023/12/22 06:43:15;;;;;;;;;;;;;;;2.53;100.00;94880.73;110519;1239;72787;-63
2023/12/22 06:45:45;;;;;;;;;;;;;;;2.48;100.00;94887.21;110644;1244;69254;-64
2023/12/22 06:48:14;;;;;;;;;;;;;;;2.42;100.00;94889.04;110532;1239;69355;-64
2023/12/22 06:50:45;;;;;;;;;;;;;;;2.38;100.00;94892.96;110579;1239;60430;-65
2023/12/22 06:53:14;;;;;;;;;;;;;;;2.39;100.00;94893.98;110546;1239;60479;-64
2023/12/22 06:55:53;;;;;;;;;;;;;;;2.44;100.00;94889.81;110578;1238;73076;-64
2023/12/22 06:58:25;;;;;;;;;;;;;;;2.51;100.00;94905.04;110521;1239;69862;-64
2023/12/22 07:00:56;;;;;;;;;;;;;;;2.60;100.00;94914.59;110614;1239;67575;-64
2023/12/22 07:03:25;;;;;;;;;;;;;;;2.74;100.00;94929.83;110509;1239;60523;-64
2023/12/22 07:05:54;;;;;;;;;;;;;;;2.82;100.00;94937.73;110665;1239;60412;-64
2023/12/22 07:08:23;;;;;;;;;;;;;;;2.88;100.00;94946.16;110617;1240;72211;-64
2023/12/22 07:10:52;;;;;;;;;;;;;;;2.99;100.00;94940.68;110606;1239;69348;-64
2023/12/22 07:13:22;;;;;;;;;;;;;;;3.04;100.00;94922.88;110679;1241;69751;-64
2023/12/22 07:15:51;;;;;;;;;;;;;;;3.09;100.00;94913.34;110558;1240;60544;-64
2023/12/22 07:18:20;;;;;;;;;;;;;;;3.09;100.00;94910.45;110415;1241;60489;-64
2023/12/22 07:20:50;;;;;;;;;;;;;;;3.09;100.00;94909.37;110506;1241;71640;-64
2023/12/22 07:23:19;;;;;;;;;;;;;;;3.12;100.00;94914.14;110522;1237;68552;-64
2023/12/22 07:25:48;;;;;;;;;;;;;;;3.12;100.00;94919.33;110531;1239;69244;-64
2023/12/22 07:28:20;;;;;;;;;;;;;;;3.14;100.00;94917.94;110550;1239;60479;-64
2023/12/22 07:30:49;;;;;;;;;;;;;;;3.18;100.00;94927.95;110623;1239;60499;-64
2023/12/22 07:33:18;;;;;;;;;;;;;;;3.24;100.00;94935.17;110650;1240;72111;-64
2023/12/22 07:35:47;;;;;;;;;;;;;;;3.25;100.00;94938.39;110525;1241;69025;-64
2023/12/22 07:38:16;;;;;;;;;;;;;;;3.27;100.00;94937.34;110611;1239;69664;-64
2023/12/22 07:40:45;;;;;;;;;;;;;;;3.32;100.00;94948.45;110475;1239;60507;-64
2023/12/22 07:43:16;;;;;;;;;;;;;;;3.35;100.00;94951.64;110612;1239;60484;-64
2023/12/22 07:45:47;;;;;;;;;;;;;;;3.39;100.00;94941.70;110621;1239;72764;-65
2023/12/22 07:48:21;;;;;;;;;;;;;;;3.42;100.00;94950.67;110676;1238;69229;-65
2023/12/22 07:50:51;;;;;;;;;;;;;;;3.42;100.00;94952.05;110571;1239;69113;-63
2023/12/22 07:53:21;;;;;;;;;;;;;;;3.44;100.00;94951.27;110617;1240;60495;-65
2023/12/22 07:55:50;;;;;;;;;;;;;;;3.46;100.00;94947.33;110603;1239;60544;-65
2023/12/22 07:58:19;;;;;;;;;;;;;;;3.53;100.00;94963.69;110491;1238;72741;-65
2023/12/22 08:00:48;;;;;;;;;;;;;;;3.54;100.00;94972.27;110503;1239;69089;-65
2023/12/22 08:03:19;;;;;;;;;;;;;;;3.55;100.00;94963.73;110558;1239;69776;-64
2023/12/22 08:05:48;;;;;;;;;;;;;;;3.57;100.00;94964.39;110664;1240;60939;-64
2023/12/22 08:08:17;;;;;;;;;;;;;;;3.67;100.00;94971.91;110558;1244;60927;-64
2023/12/22 08:10:46;;;;;;;;;;;;;;;3.69;100.00;94966.85;110448;1238;73075;-64
2023/12/22 08:13:16;;;;;;;;;;;;;;;3.73;100.00;94966.75;110517;1239;69806;-64
2023/12/22 08:15:45;;;;;;;;;;;;;;;3.74;100.00;94966.63;110657;1241;69158;-63
2023/12/22 08:18:15;;;;;;;;;;;;;;;3.77;100.00;94965.48;110488;1239;60553;-63
2023/12/22 08:20:44;;;;;;;;;;;;;;;3.77;100.00;94970.32;110588;1238;60483;-64
2023/12/22 08:23:16;;;;;;;;;;;;;;;3.74;100.00;94979.20;110596;1245;72197;-63
2023/12/22 08:25:46;;;;;;;;;;;;;;;3.77;100.00;94988.97;110485;1239;69729;-63
2023/12/22 08:28:15;;;;;;;;;;;;;;;3.75;100.00;94991.35;110450;1239;69260;-63
2023/12/22 08:30:44;;;;;;;;;;;;;;;3.66;100.00;94991.04;110462;1239;60544;-63
2023/12/22 08:33:14;;;;;;;;;;;;;;;3.60;100.00;94999.01;110471;1241;60572;-62
2023/12/22 08:35:45;;;;;;;;;;;;;;;3.61;100.00;95003.02;110521;1241;72494;-63
2023/12/22 08:38:15;;;;;;;;;;;;;;;3.59;100.00;95004.04;110688;1239;69216;-63
2023/12/22 08:40:45;;;;;;;;;;;;;;;3.57;100.00;95010.40;110519;1239;69316;-63
2023/12/22 08:43:14;;;;;;;;;;;;;;;3.62;100.00;95012.64;110450;1239;60483;-63
2023/12/22 08:45:43;;;;;;;;;;;;;;;3.62;100.00;95017.81;110502;1239;60560;-63
2023/12/22 08:48:12;;;;;;;;;;;;;;;3.61;100.00;95030.99;110490;1239;72337;-63
2023/12/22 08:50:41;;;;;;;;;;;;;;;3.58;100.00;95024.48;110499;1239;69911;-64
2023/12/22 08:53:12;;;;;;;;;;;;;;;3.63;100.00;95029.08;110417;1239;69252;-62
2023/12/22 08:55:41;;;;;;;;;;;;;;;3.60;100.00;95028.95;110572;1239;60971;-62
2023/12/22 08:58:10;;;;;;;;;;;;;;;3.63;100.00;95026.98;110654;1246;60555;-62
2023/12/22 09:00:39;;;;;;;;;;;;;;;3.60;100.00;95024.79;110683;1238;72009;-62
2023/12/22 09:03:08;;;;;;;;;;;;;;;3.55;100.00;95018.69;110565;1247;69290;-61
2023/12/22 09:05:37;;;;;;;;;;;;;;;3.58;100.00;95015.67;110578;1239;69472;-61
2023/12/22 09:08:07;;;;;;;;;;;;;;;3.62;100.00;95010.36;110383;1241;60737;-61
2023/12/22 09:10:37;;;;;;;;;;;;;;;3.70;100.00;95006.59;110441;1241;60524;-61
2023/12/22 09:13:06;;;;;;;;;;;;;;;3.88;100.00;95005.05;110489;1238;72613;-61
2023/12/22 09:15:36;;;;;;;;;;;;;;;4.13;100.00;95004.64;110567;1241;69756;-62
2023/12/22 09:18:05;;;;;;;;;;;;;;;4.23;100.00;94993.45;110425;1239;69921;-61
2023/12/22 09:20:35;;;;;;;;;;;;;;;4.38;100.00;94996.48;110428;1239;60515;-62
2023/12/22 09:23:06;;;;;;;;;;;;;;;4.46;100.00;94993.41;110499;1240;60425;-62
2023/12/22 09:25:38;;;;;;;;;;;;;;;4.29;100.00;94994.50;110614;1238;72720;-62
2023/12/22 09:28:08;;;;;;;;;;;;;;;4.33;100.00;94990.53;110465;1238;68491;-62
2023/12/22 09:30:37;;;;;;;;;;;;;;;4.27;100.00;94991.91;110371;1241;70223;-62
2023/12/22 09:33:06;;;;;;;;;;;;;;;4.26;100.00;94991.51;110361;1238;60540;-62
2023/12/22 09:35:36;;;;;;;;;;;;;;;4.23;100.00;94985.06;110513;1241;60446;-62
2023/12/22 09:38:08;;;;;;;;;;;;;;;4.13;100.00;94984.67;110480;1238;72661;-62
2023/12/22 09:40:39;;;;;;;;;;;;;;;4.21;100.00;94976.18;110435;1242;69291;-62
2023/12/22 09:43:08;;;;;;;;;;;;;;;5.13;100.00;94976.60;110441;1240;69852;-62
2023/12/22 09:45:38;;;;;;;;;;;;;;;6.35;97.84;94970.23;110492;1241;60494;-62
2023/12/22 09:48:10;;;;;;;;;;;;;;;7.47;91.20;94966.45;110424;1241;60475;-61
2023/12/22 09:50:40;;;;;;;;;;;;;;;8.35;89.50;94970.48;110583;1241;70605;-61
2023/12/22 09:53:12;;;;;;;;;;;;;;;8.94;81.86;94974.55;110526;1238;70216;-62
2023/12/22 09:55:43;;;;;;;;;;;;;;;9.72;76.62;94976.52;110485;1241;69888;-62
2023/12/22 09:58:16;;;;;;;;;;;;;;;10.80;77.44;94975.42;110385;1242;60505;-63
2023/12/22 10:00:48;;;;;;;;;;;;;;;11.08;67.05;94974.61;110499;1241;60441;-64
2023/12/22 10:03:19;;;;;;;;;;;;;;;11.96;64.85;94976.55;110448;1241;72352;-61
2023/12/22 10:05:48;;;;;;;;;;;;;;;12.60;63.18;94968.80;110428;1241;69829;-61
2023/12/22 10:08:19;;;;;;;;;;;;;;;12.17;57.89;94964.73;110379;1241;68529;-60
2023/12/22 10:10:52;;;;;;;;;;;;;;;12.24;61.46;94965.14;110548;1238;60538;-61
2023/12/22 10:13:22;;;;;;;;;;;;;;;11.64;58.18;94966.16;110498;1240;60463;-63
2023/12/22 10:15:51;;;;;;;;;;;;;;;11.28;57.91;94965.38;110464;1240;72274;-64
2023/12/22 10:18:21;;;;;;;;;;;;;;;10.47;57.69;94958.89;110531;1242;68383;-61
2023/12/22 10:20:50;;;;;;;;;;;;;;;9.17;59.01;94956.89;110493;1240;68892;-61
2023/12/22 10:23:19;;;;;;;;;;;;;;;8.59;58.84;94958.91;110582;1238;60532;-61
2023/12/22 10:25:51;;;;;;;;;;;;;;;8.09;61.62;94963.23;110570;1248;60446;-63
2023/12/22 10:28:24;;;;;;;;;;;;;;;7.90;63.26;94963.04;110547;1240;72303;-61
2023/12/22 10:30:53;;;;;;;;;;;;;;;7.49;63.48;94969.00;110582;1238;69537;-63
2023/12/22 10:33:23;;;;;;;;;;;;;;;6.89;64.20;94970.77;110404;1241;68656;-61
2023/12/22 10:35:53;;;;;;;;;;;;;;;6.57;65.96;94972.80;110381;1238;60468;-61
2023/12/22 10:38:22;;;;;;;;;;;;;;;6.28;67.55;94974.38;110319;1238;60586;-61
2023/12/22 10:40:52;;;;;;;;;;;;;;;6.03;69.22;94972.72;110406;1240;72089;-62
2023/12/22 10:43:21;;;;;;;;;;;;;;;6.09;69.75;94980.23;110449;1244;69288;-62
2023/12/22 10:45:52;;;;;;;;;;;;;;;6.02;70.64;94983.51;110415;1241;69616;-61
2023/12/22 10:48:22;;;;;;;;;;;;;;;6.10;70.66;94983.64;110344;1240;60462;-61
2023/12/22 10:50:51;;;;;;;;;;;;;;;5.97;69.47;94979.33;110446;1238;60573;-61
2023/12/22 10:53:21;;;;;;;;;;;;;;;6.29;69.45;94981.50;110400;1238;72141;-62
2023/12/22 10:55:51;;;;;;;;;;;;;;;6.53;67.93;94979.72;110455;1238;68647;-62
2023/12/22 10:58:21;;;;;;;;;;;;;;;6.77;67.08;94977.10;110509;1241;68523;-62
2023/12/22 11:00:51;;;;;;;;;;;;;;;6.69;70.81;94986.52;110265;1238;60531;-61
2023/12/22 11:03:23;;;;;;;;;;;;;;;6.33;76.67;94993.80;110415;1241;60527;-62
2023/12/22 11:05:55;;;;;;;;;;;;;;;5.69;82.40;95000.34;110423;1241;72181;-62
2023/12/22 11:08:25;;;;;;;;;;;;;;;5.25;86.08;95000.24;110406;1238;67714;-62
2023/12/22 11:10:57;;;;;;;;;;;;;;;5.00;86.69;94980.14;110368;1241;68181;-62
2023/12/22 11:13:26;;;;;;;;;;;;;;;4.67;90.11;94988.46;110367;1240;60537;-62
2023/12/22 11:15:59;;;;;;;;;;;;;;;4.32;95.96;94986.64;110421;1241;60439;-62
2023/12/22 11:18:30;;;;;;;;;;;;;;;4.23;97.62;94983.29;110420;1241;72778;-63
2023/12/22 11:21:01;;;;;;;;;;;;;;;4.18;98.86;94993.55;110397;1241;69760;-63
2023/12/22 11:23:30;;;;;;;;;;;;;;;4.10;100.00;95002.31;110375;1238;68533;-62
2023/12/22 11:26:01;;;;;;;;;;;;;;;4.09;100.00;95011.90;110389;1240;60468;-63
2023/12/22 11:28:32;;;;;;;;;;;;;;;4.00;100.00;95006.44;110430;1242;60490;-62
2023/12/22 11:31:01;;;;;;;;;;;;;;;4.09;100.00;95006.23;110422;1241;72182;-62
2023/12/22 11:33:31;;;;;;;;;;;;;;;4.26;100.00;95002.02;110488;1241;69811;-62
2023/12/22 11:36:01;;;;;;;;;;;;;;;4.29;100.00;95007.91;110473;1240;69927;-62
2023/12/22 11:38:31;;;;;;;;;;;;;;;4.40;99.71;95001.70;110384;1240;60476;-62
2023/12/22 11:41:03;;;;;;;;;;;;;;;4.53;99.63;95002.56;110412;1241;60546;-62
2023/12/22 11:43:33;;;;;;;;;;;;;;;5.01;99.01;95001.86;110451;1238;72789;-62
2023/12/22 11:46:03;;;;;;;;;;;;;;;5.36;96.51;95004.59;110396;1238;69741;-63
2023/12/22 11:48:32;;;;;;;;;;;;;;;5.89;94.30;95006.30;110382;1241;69895;-63
2023/12/22 11:51:02;;;;;;;;;;;;;;;6.04;91.77;94998.02;110430;1240;60556;-63
2023/12/22 11:53:34;;;;;;;;;;;;;;;6.09;90.73;94997.39;110441;1241;60444;-62
2023/12/22 11:56:05;;;;;;;;;;;;;;;6.04;88.94;94997.51;110439;1240;71649;-63
2023/12/22 11:58:35;;;;;;;;;;;;;;;6.27;87.96;94995.72;110410;1238;69047;-63
2023/12/22 12:01:08;;;;;;;;;;;;;;;6.17;84.82;94994.57;110442;1238;68679;-63
2023/12/22 12:03:51;;;;;;;;;;;;;;;5.93;86.61;94992.83;110485;1238;60497;-62
2023/12/22 12:06:30;;;;;;;;;;;;;;;5.53;87.93;94991.61;110491;1244;60537;-62
2023/12/22 12:09:03;;;;;;;;;;;;;;;5.17;91.07;94991.40;110403;1240;72218;-63
2023/12/22 12:11:51;;;;;;;;;;;;;;;4.95;92.37;94986.29;110425;1242;69859;-62
2023/12/22 12:14:28;;;;;;;;;;;;;;;4.63;94.10;94978.09;110446;1240;69293;-62
2023/12/22 12:17:08;;;;;;;;;;;;;;;4.38;95.56;94976.33;110505;1238;60470;-64
2023/12/22 12:19:38;;;;;;;;;;;;;;;4.21;96.64;94975.38;110455;1244;60552;-62
2023/12/22 12:22:07;;;;;;;;;;;;;;;4.05;98.27;94979.86;110518;1241;72821;-62
2023/12/22 12:24:37;;;;;;;;;;;;;;;4.01;98.43;94986.25;110509;1240;69666;-63
2023/12/22 12:27:07;;;;;;;;;;;;;;;3.99;99.32;94986.35;110501;1239;68806;-62
2023/12/22 12:29:37;;;;;;;;;;;;;;;4.10;99.85;94982.19;110538;1240;60553;-62
2023/12/22 12:32:09;;;;;;;;;;;;;;;4.28;97.99;94978.58;110510;1238;60495;-62
2023/12/22 12:34:38;;;;;;;;;;;;;;;4.36;95.49;94969.23;110544;1239;72210;-62
2023/12/22 12:37:07;;;;;;;;;;;;;;;4.33;95.87;94975.55;110434;1241;69185;-62
2023/12/22 12:39:39;;;;;;;;;;;;;;;4.31;95.38;94976.77;110398;1243;68526;-62
2023/12/22 12:42:11;;;;;;;;;;;;;;;4.69;94.87;94973.48;110453;1241;60514;-62
2023/12/22 12:44:41;;;;;;;;;;;;;;;5.55;91.96;94972.97;110512;1238;60501;-63
2023/12/22 12:47:14;;;;;;;;;;;;;;;6.13;85.72;94970.56;110409;1239;72255;-62
2023/12/22 12:49:44;;;;;;;;;;;;;;;6.42;78.16;94974.03;110563;1241;69644;-63
2023/12/22 12:52:15;;;;;;;;;;;;;;;6.62;78.00;94980.12;110608;1241;68538;-63
2023/12/22 12:54:45;;;;;;;;;;;;;;;6.66;78.16;94984.21;110544;1241;60544;-63